sensor_id;sensor_type;location;lat;lon;timestamp;pressure;altitude;pressure_sealevel;temperature;humidity
54465;BME280;40374;49.480;20.016;2023-02-15T11:01:58;96212.34;;;11.46;53.10
54465;BME280;40374;49.480;20.016;2023-02-15T11:04:41;96200.66;;;11.62;52.20
54465;BME280;40374;49.480;20.016;2023-02-15T11:07:17;96189.28;;;11.87;50.58
54465;BME280;40374;49.480;20.016;2023-02-15T11:09:51;96179.72;;;12.07;50.15
54465;BME280;40374;49.480;20.016;2023-02-15T11:12:24;96186.09;;;12.28;50.09
54465;BME280;40374;49.480;20.016;2023-02-15T11:15:09;96179.28;;;12.68;49.39
54465;BME280;40374;49.480;20.016;2023-02-15T11:17:45;96182.66;;;13.00;47.98
54465;BME280;40374;49.480;20.016;2023-02-15T11:22:51;96171.16;;;13.31;47.19
54465;BME280;40374;49.480;20.016;2023-02-15T11:25:30;96162.00;;;13.57;46.86
54465;BME280;40374;49.480;20.016;2023-02-15T11:27:58;96161.50;;;13.76;46.54
54465;BME280;40374;49.480;20.016;2023-02-15T11:30:36;96160.13;;;14.09;46.31
54465;BME280;40374;49.480;20.016;2023-02-15T11:33:18;96156.81;;;14.43;45.40
54465;BME280;40374;49.480;20.016;2023-02-15T11:36:08;96150.53;;;14.68;44.94
54465;BME280;40374;49.480;20.016;2023-02-15T11:38:39;96147.56;;;15.19;43.78
54465;BME280;40374;49.480;20.016;2023-02-15T11:41:14;96136.78;;;15.54;42.70
54465;BME280;40374;49.480;20.016;2023-02-15T11:43:54;96125.91;;;15.59;42.65
54465;BME280;40374;49.480;20.016;2023-02-15T11:46:24;96131.78;;;16.06;42.25
54465;BME280;40374;49.480;20.016;2023-02-15T11:48:51;96123.69;;;16.30;41.91
54465;BME280;40374;49.480;20.016;2023-02-15T11:51:21;96132.34;;;16.80;41.20
54465;BME280;40374;49.480;20.016;2023-02-15T11:53:51;96116.25;;;17.08;40.29
54465;BME280;40374;49.480;20.016;2023-02-15T11:56:22;96118.91;;;17.13;39.44
54465;BME280;40374;49.480;20.016;2023-02-15T12:01:43;96113.59;;;17.02;38.59
54465;BME280;40374;49.480;20.016;2023-02-15T12:04:40;96111.63;;;17.08;38.33
54465;BME280;40374;49.480;20.016;2023-02-15T12:07:27;96103.72;;;17.82;37.86
54465;BME280;40374;49.480;20.016;2023-02-15T12:10:10;96090.72;;;18.67;37.13
54465;BME280;40374;49.480;20.016;2023-02-15T12:12:41;96095.44;;;19.03;37.97
54465;BME280;40374;49.480;20.016;2023-02-15T12:15:10;96086.88;;;19.46;37.33
54465;BME280;40374;49.480;20.016;2023-02-15T12:20:24;96069.66;;;19.46;35.52
54465;BME280;40374;49.480;20.016;2023-02-15T12:23:12;96067.09;;;19.63;33.63
54465;BME280;40374;49.480;20.016;2023-02-15T12:25:43;96068.06;;;19.90;34.63
54465;BME280;40374;49.480;20.016;2023-02-15T12:28:36;96063.31;;;20.36;34.47
54465;BME280;40374;49.480;20.016;2023-02-15T12:31:30;96058.88;;;20.57;33.50
54465;BME280;40374;49.480;20.016;2023-02-15T12:34:02;96053.44;;;20.17;34.14
54465;BME280;40374;49.480;20.016;2023-02-15T12:36:44;96060.84;;;19.94;33.24
54465;BME280;40374;49.480;20.016;2023-02-15T12:39:21;96057.03;;;19.95;34.01
54465;BME280;40374;49.480;20.016;2023-02-15T12:44:25;96056.84;;;19.46;34.26
54465;BME280;40374;49.480;20.016;2023-02-15T12:47:00;96052.31;;;19.05;33.83
54465;BME280;40374;49.480;20.016;2023-02-15T12:49:36;96051.81;;;19.03;34.56
54465;BME280;40374;49.480;20.016;2023-02-15T12:52:23;96044.91;;;19.20;35.73
54465;BME280;40374;49.480;20.016;2023-02-15T12:54:51;96048.53;;;18.93;35.41
54465;BME280;40374;49.480;20.016;2023-02-15T12:57:26;96055.22;;;18.59;36.13
54465;BME280;40374;49.480;20.016;2023-02-15T13:00:11;96043.72;;;18.34;35.43
54465;BME280;40374;49.480;20.016;2023-02-15T13:02:53;96039.44;;;17.87;37.00
54465;BME280;40374;49.480;20.016;2023-02-15T13:05:37;96045.69;;;18.01;35.39
54465;BME280;40374;49.480;20.016;2023-02-15T13:08:12;96042.78;;;18.11;36.73
54465;BME280;40374;49.480;20.016;2023-02-15T13:10:58;96036.03;;;18.09;35.98
54465;BME280;40374;49.480;20.016;2023-02-15T13:13:32;96037.34;;;17.78;35.86
54465;BME280;40374;49.480;20.016;2023-02-15T13:16:04;96038.41;;;17.82;36.42
54465;BME280;40374;49.480;20.016;2023-02-15T13:18:37;96029.28;;;18.06;36.29
54465;BME280;40374;49.480;20.016;2023-02-15T13:21:18;96027.19;;;18.17;35.50
54465;BME280;40374;49.480;20.016;2023-02-15T13:23:53;96019.09;;;18.25;35.71
54465;BME280;40374;49.480;20.016;2023-02-15T13:26:26;96031.59;;;18.26;36.81
54465;BME280;40374;49.480;20.016;2023-02-15T13:29:00;96024.94;;;18.05;36.05
54465;BME280;40374;49.480;20.016;2023-02-15T13:31:32;96022.38;;;17.48;37.23
54465;BME280;40374;49.480;20.016;2023-02-15T13:34:10;96024.75;;;16.79;36.93
54465;BME280;40374;49.480;20.016;2023-02-15T13:36:49;96019.38;;;15.88;37.94
54465;BME280;40374;49.480;20.016;2023-02-15T13:42:13;96031.41;;;13.93;41.26
54465;BME280;40374;49.480;20.016;2023-02-15T13:50:20;96024.84;;;12.45;43.92
54465;BME280;40374;49.480;20.016;2023-02-15T13:53:02;96024.69;;;12.04;44.70
54465;BME280;40374;49.480;20.016;2023-02-15T13:55:36;96023.41;;;11.74;44.87
54465;BME280;40374;49.480;20.016;2023-02-15T13:58:36;96013.44;;;11.70;45.50
54465;BME280;40374;49.480;20.016;2023-02-15T14:01:14;96024.31;;;11.48;45.37
54465;BME280;40374;49.480;20.016;2023-02-15T14:15:58;96018.16;;;10.55;50.09
54465;BME280;40374;49.480;20.016;2023-02-15T14:18:46;96019.78;;;10.56;49.78
54465;BME280;40374;49.480;20.016;2023-02-15T14:21:31;96018.44;;;10.32;50.46
54465;BME280;40374;49.480;20.016;2023-02-15T14:27:27;96025.06;;;10.02;52.54
54465;BME280;40374;49.480;20.016;2023-02-15T14:32:37;96008.38;;;10.00;52.86
54465;BME280;40374;49.480;20.016;2023-02-15T14:35:17;96002.22;;;10.27;51.71
54465;BME280;40374;49.480;20.016;2023-02-15T14:38:07;95999.63;;;10.32;51.24
54465;BME280;40374;49.480;20.016;2023-02-15T14:41:04;95987.59;;;10.18;50.96
54465;BME280;40374;49.480;20.016;2023-02-15T14:43:59;95996.69;;;10.61;50.96
54465;BME280;40374;49.480;20.016;2023-02-15T14:46:46;95996.13;;;10.86;50.16
54465;BME280;40374;49.480;20.016;2023-02-15T14:49:22;96001.91;;;11.42;49.88
54465;BME280;40374;49.480;20.016;2023-02-15T14:51:54;95996.47;;;11.79;49.78
54465;BME280;40374;49.480;20.016;2023-02-15T14:59:41;95993.41;;;12.08;48.33
54465;BME280;40374;49.480;20.016;2023-02-15T15:07:56;95992.66;;;12.28;48.34
54465;BME280;40374;49.480;20.016;2023-02-15T15:12:56;95986.19;;;12.19;47.63
54465;BME280;40374;49.480;20.016;2023-02-15T15:18:08;95971.69;;;12.46;46.86
54465;BME280;40374;49.480;20.016;2023-02-15T15:20:49;95983.84;;;12.64;46.56
54465;BME280;40374;49.480;20.016;2023-02-15T15:25:48;95975.84;;;12.01;47.02
54465;BME280;40374;49.480;20.016;2023-02-15T15:46:00;95982.19;;;8.04;60.55
54465;BME280;40374;49.480;20.016;2023-02-15T15:48:35;95982.59;;;7.72;68.22
54465;BME280;40374;49.480;20.016;2023-02-15T15:51:17;95973.94;;;7.42;72.61
54465;BME280;40374;49.480;20.016;2023-02-15T15:53:49;95984.88;;;7.05;74.22
54465;BME280;40374;49.480;20.016;2023-02-15T15:56:41;95980.41;;;6.75;91.75
54465;BME280;40374;49.480;20.016;2023-02-15T15:59:17;95992.41;;;6.42;94.94
54465;BME280;40374;49.480;20.016;2023-02-15T16:01:46;95977.31;;;6.06;100.00
54465;BME280;40374;49.480;20.016;2023-02-15T16:04:26;95981.25;;;6.03;100.00
54465;BME280;40374;49.480;20.016;2023-02-15T16:06:53;95983.63;;;5.93;100.00
54465;BME280;40374;49.480;20.016;2023-02-15T16:09:26;95973.56;;;5.77;100.00
54465;BME280;40374;49.480;20.016;2023-02-15T16:11:56;95979.44;;;5.67;100.00
54465;BME280;40374;49.480;20.016;2023-02-15T16:14:31;95984.81;;;5.60;100.00
54465;BME280;40374;49.480;20.016;2023-02-15T16:17:01;95991.22;;;5.41;100.00
54465;BME280;40374;49.480;20.016;2023-02-15T16:19:34;95996.22;;;5.31;100.00
54465;BME280;40374;49.480;20.016;2023-02-15T16:22:09;95996.00;;;5.14;100.00
54465;BME280;40374;49.480;20.016;2023-02-15T16:33:16;95992.69;;;4.68;100.00
54465;BME280;40374;49.480;20.016;2023-02-15T16:35:55;96013.09;;;4.56;100.00
54465;BME280;40374;49.480;20.016;2023-02-15T16:41:09;62409.59;;;-145.97;100.00
54465;BME280;40374;49.480;20.016;2023-02-15T16:43:40;62409.59;;;-145.97;100.00
54465;BME280;40374;49.480;20.016;2023-02-15T16:46:12;62409.59;;;-145.97;100.00
54465;BME280;40374;49.480;20.016;2023-02-15T16:48:43;62409.59;;;-145.97;100.00
54465;BME280;40374;49.480;20.016;2023-02-15T16:51:24;62409.59;;;-145.97;100.00
54465;BME280;40374;49.480;20.016;2023-02-15T16:53:56;62409.59;;;-145.97;100.00
54465;BME280;40374;49.480;20.016;2023-02-15T16:56:26;62409.59;;;-145.97;100.00
54465;BME280;40374;49.480;20.016;2023-02-15T16:58:56;62409.59;;;-145.97;100.00
54465;BME280;40374;49.480;20.016;2023-02-15T17:01:31;62409.59;;;-145.97;100.00
54465;BME280;40374;49.480;20.016;2023-02-15T17:04:34;62409.59;;;-145.97;100.00
54465;BME280;40374;49.480;20.016;2023-02-15T17:09:32;62409.59;;;-145.97;100.00
54465;BME280;40374;49.480;20.016;2023-02-15T17:12:01;62409.59;;;-145.97;100.00
54465;BME280;40374;49.480;20.016;2023-02-15T17:14:31;62409.59;;;-145.97;100.00
54465;BME280;40374;49.480;20.016;2023-02-15T17:17:14;62409.59;;;-145.97;100.00
54465;BME280;40374;49.480;20.016;2023-02-15T17:19:52;62409.59;;;-145.97;100.00
54465;BME280;40374;49.480;20.016;2023-02-15T17:22:25;62409.59;;;-145.97;100.00
54465;BME280;40374;49.480;20.016;2023-02-15T17:24:59;62409.59;;;-145.97;100.00
54465;BME280;40374;49.480;20.016;2023-02-15T17:27:30;62409.59;;;-145.97;100.00
54465;BME280;40374;49.480;20.016;2023-02-15T17:30:14;62409.59;;;-145.97;100.00
54465;BME280;40374;49.480;20.016;2023-02-15T17:32:59;62409.59;;;-145.97;100.00
54465;BME280;40374;49.480;20.016;2023-02-15T17:35:32;62409.59;;;-145.97;100.00
54465;BME280;40374;49.480;20.016;2023-02-15T17:38:04;62409.59;;;-145.97;100.00
54465;BME280;40374;49.480;20.016;2023-02-15T17:40:33;62409.59;;;-145.97;100.00
54465;BME280;40374;49.480;20.016;2023-02-15T17:43:01;62409.59;;;-145.97;100.00
54465;BME280;40374;49.480;20.016;2023-02-15T17:45:40;62409.59;;;-145.97;100.00
54465;BME280;40374;49.480;20.016;2023-02-15T17:48:18;62409.59;;;-145.97;100.00
54465;BME280;40374;49.480;20.016;2023-02-15T17:50:47;62409.59;;;-145.97;100.00
54465;BME280;40374;49.480;20.016;2023-02-15T17:53:17;62409.59;;;-145.97;100.00
54465;BME280;40374;49.480;20.016;2023-02-15T17:55:44;62409.59;;;-145.97;100.00
54465;BME280;40374;49.480;20.016;2023-02-15T17:58:14;62409.59;;;-145.97;100.00
54465;BME280;40374;49.480;20.016;2023-02-15T18:00:48;62409.59;;;-145.97;100.00
54465;BME280;40374;49.480;20.016;2023-02-15T18:03:44;62409.59;;;-145.97;100.00
54465;BME280;40374;49.480;20.016;2023-02-15T18:06:34;62409.59;;;-145.97;100.00
54465;BME280;40374;49.480;20.016;2023-02-15T18:09:21;62409.59;;;-145.97;100.00
54465;BME280;40374;49.480;20.016;2023-02-15T18:12:28;62409.59;;;-145.97;100.00
54465;BME280;40374;49.480;20.016;2023-02-15T18:14:57;62409.59;;;-145.97;100.00
54465;BME280;40374;49.480;20.016;2023-02-15T18:17:45;62409.59;;;-145.97;100.00
54465;BME280;40374;49.480;20.016;2023-02-15T18:20:22;62409.59;;;-145.97;100.00
54465;BME280;40374;49.480;20.016;2023-02-15T18:22:50;62409.59;;;-145.97;100.00
54465;BME280;40374;49.480;20.016;2023-02-15T18:25:21;62409.59;;;-145.97;100.00
54465;BME280;40374;49.480;20.016;2023-02-15T18:27:50;62409.59;;;-145.97;100.00
54465;BME280;40374;49.480;20.016;2023-02-15T18:30:22;62409.59;;;-145.97;100.00
54465;BME280;40374;49.480;20.016;2023-02-15T18:32:53;62409.59;;;-145.97;100.00
54465;BME280;40374;49.480;20.016;2023-02-15T18:35:27;62409.59;;;-145.97;100.00
54465;BME280;40374;49.480;20.016;2023-02-15T18:37:57;62409.59;;;-145.97;100.00
54465;BME280;40374;49.480;20.016;2023-02-15T18:40:26;62409.59;;;-145.97;100.00
54465;BME280;40374;49.480;20.016;2023-02-15T18:42:54;62409.59;;;-145.97;100.00
54465;BME280;40374;49.480;20.016;2023-02-15T18:45:25;62409.59;;;-145.97;100.00
54465;BME280;40374;49.480;20.016;2023-02-15T18:47:58;62409.59;;;-145.97;100.00
54465;BME280;40374;49.480;20.016;2023-02-15T18:50:32;62409.59;;;-145.97;100.00
54465;BME280;40374;49.480;20.016;2023-02-15T18:53:05;62409.59;;;-145.97;100.00
54465;BME280;40374;49.480;20.016;2023-02-15T18:55:34;62409.59;;;-145.97;100.00
54465;BME280;40374;49.480;20.016;2023-02-15T18:58:03;62409.59;;;-145.97;100.00
54465;BME280;40374;49.480;20.016;2023-02-15T19:00:33;62409.59;;;-145.97;100.00
54465;BME280;40374;49.480;20.016;2023-02-15T19:03:01;62409.59;;;-145.97;100.00
54465;BME280;40374;49.480;20.016;2023-02-15T19:05:31;62409.59;;;-145.97;100.00
54465;BME280;40374;49.480;20.016;2023-02-15T19:07:59;62409.59;;;-145.97;100.00
54465;BME280;40374;49.480;20.016;2023-02-15T19:10:30;62409.59;;;-145.97;100.00
54465;BME280;40374;49.480;20.016;2023-02-15T19:12:58;62409.59;;;-145.97;100.00
54465;BME280;40374;49.480;20.016;2023-02-15T19:15:28;62409.59;;;-145.97;100.00
54465;BME280;40374;49.480;20.016;2023-02-15T19:17:59;62409.59;;;-145.97;100.00
54465;BME280;40374;49.480;20.016;2023-02-15T19:20:38;62409.59;;;-145.97;100.00
54465;BME280;40374;49.480;20.016;2023-02-15T19:23:11;62409.59;;;-145.97;100.00
54465;BME280;40374;49.480;20.016;2023-02-15T19:25:41;62409.59;;;-145.97;100.00
54465;BME280;40374;49.480;20.016;2023-02-15T19:28:15;62409.59;;;-145.97;100.00
54465;BME280;40374;49.480;20.016;2023-02-15T19:30:44;62409.59;;;-145.97;100.00
54465;BME280;40374;49.480;20.016;2023-02-15T19:33:16;62409.59;;;-145.97;100.00
54465;BME280;40374;49.480;20.016;2023-02-15T19:35:47;62409.59;;;-145.97;100.00
54465;BME280;40374;49.480;20.016;2023-02-15T19:38:20;62409.59;;;-145.97;100.00
54465;BME280;40374;49.480;20.016;2023-02-15T19:40:49;62409.59;;;-145.97;100.00
54465;BME280;40374;49.480;20.016;2023-02-15T19:43:21;62409.59;;;-145.97;100.00
54465;BME280;40374;49.480;20.016;2023-02-15T19:45:52;62409.59;;;-145.97;100.00
54465;BME280;40374;49.480;20.016;2023-02-15T19:48:20;62409.59;;;-145.97;100.00
54465;BME280;40374;49.480;20.016;2023-02-15T19:50:48;62409.59;;;-145.97;100.00
54465;BME280;40374;49.480;20.016;2023-02-15T19:53:22;62409.59;;;-145.97;100.00
54465;BME280;40374;49.480;20.016;2023-02-15T19:55:51;62409.59;;;-145.97;100.00
54465;BME280;40374;49.480;20.016;2023-02-15T19:58:19;62409.59;;;-145.97;100.00
54465;BME280;40374;49.480;20.016;2023-02-15T20:00:49;62409.59;;;-145.97;100.00
54465;BME280;40374;49.480;20.016;2023-02-15T20:03:16;62409.59;;;-145.97;100.00
54465;BME280;40374;49.480;20.016;2023-02-15T20:05:44;62409.59;;;-145.97;100.00
54465;BME280;40374;49.480;20.016;2023-02-15T20:08:16;62409.59;;;-145.97;100.00
54465;BME280;40374;49.480;20.016;2023-02-15T20:10:45;62409.59;;;-145.97;100.00
54465;BME280;40374;49.480;20.016;2023-02-15T20:13:17;62409.59;;;-145.97;100.00
54465;BME280;40374;49.480;20.016;2023-02-15T20:15:46;62409.59;;;-145.97;100.00
54465;BME280;40374;49.480;20.016;2023-02-15T20:18:13;62409.59;;;-145.97;100.00
54465;BME280;40374;49.480;20.016;2023-02-15T20:20:44;62409.59;;;-145.97;100.00
54465;BME280;40374;49.480;20.016;2023-02-15T20:23:33;62409.59;;;-145.97;100.00
54465;BME280;40374;49.480;20.016;2023-02-15T20:26:15;62409.59;;;-145.97;100.00
54465;BME280;40374;49.480;20.016;2023-02-15T20:28:44;62409.59;;;-145.97;100.00
54465;BME280;40374;49.480;20.016;2023-02-15T20:31:17;62409.59;;;-145.97;100.00
54465;BME280;40374;49.480;20.016;2023-02-15T20:33:49;62409.59;;;-145.97;100.00
54465;BME280;40374;49.480;20.016;2023-02-15T20:36:19;62409.59;;;-145.97;100.00
54465;BME280;40374;49.480;20.016;2023-02-15T20:38:47;62409.59;;;-145.97;100.00
54465;BME280;40374;49.480;20.016;2023-02-15T20:41:18;62409.59;;;-145.97;100.00
54465;BME280;40374;49.480;20.016;2023-02-15T20:44:25;62409.59;;;-145.97;100.00
54465;BME280;40374;49.480;20.016;2023-02-15T20:46:55;62409.59;;;-145.97;100.00
54465;BME280;40374;49.480;20.016;2023-02-15T20:49:25;62409.59;;;-145.97;100.00
54465;BME280;40374;49.480;20.016;2023-02-15T20:51:54;62409.59;;;-145.97;100.00
54465;BME280;40374;49.480;20.016;2023-02-15T20:54:25;62409.59;;;-145.97;100.00
54465;BME280;40374;49.480;20.016;2023-02-15T20:56:55;62409.59;;;-145.97;100.00
54465;BME280;40374;49.480;20.016;2023-02-15T20:59:27;62409.59;;;-145.97;100.00
54465;BME280;40374;49.480;20.016;2023-02-15T21:02:01;62409.59;;;-145.97;100.00
54465;BME280;40374;49.480;20.016;2023-02-15T21:04:31;62409.59;;;-145.97;100.00
54465;BME280;40374;49.480;20.016;2023-02-15T21:06:59;62409.59;;;-145.97;100.00
54465;BME280;40374;49.480;20.016;2023-02-15T21:09:27;62409.59;;;-145.97;100.00
54465;BME280;40374;49.480;20.016;2023-02-15T21:11:57;62409.59;;;-145.97;100.00
54465;BME280;40374;49.480;20.016;2023-02-15T21:14:26;62409.59;;;-145.97;100.00
54465;BME280;40374;49.480;20.016;2023-02-15T21:16:54;62409.59;;;-145.97;100.00
54465;BME280;40374;49.480;20.016;2023-02-15T21:19:22;62409.59;;;-145.97;100.00
54465;BME280;40374;49.480;20.016;2023-02-15T21:21:51;62409.59;;;-145.97;100.00
54465;BME280;40374;49.480;20.016;2023-02-15T21:24:22;62409.59;;;-145.97;100.00
54465;BME280;40374;49.480;20.016;2023-02-15T21:26:51;62409.59;;;-145.97;100.00
54465;BME280;40374;49.480;20.016;2023-02-15T21:29:24;62409.59;;;-145.97;100.00
54465;BME280;40374;49.480;20.016;2023-02-15T21:31:53;62409.59;;;-145.97;100.00
54465;BME280;40374;49.480;20.016;2023-02-15T21:34:21;62409.59;;;-145.97;100.00
54465;BME280;40374;49.480;20.016;2023-02-15T21:36:49;62409.59;;;-145.97;100.00
54465;BME280;40374;49.480;20.016;2023-02-15T21:39:20;62409.59;;;-145.97;100.00
54465;BME280;40374;49.480;20.016;2023-02-15T21:41:50;62409.59;;;-145.97;100.00
54465;BME280;40374;49.480;20.016;2023-02-15T21:44:37;62409.59;;;-145.97;100.00
54465;BME280;40374;49.480;20.016;2023-02-15T21:47:25;62409.59;;;-145.97;100.00
54465;BME280;40374;49.480;20.016;2023-02-15T21:50:20;62409.59;;;-145.97;100.00
54465;BME280;40374;49.480;20.016;2023-02-15T21:53:11;62409.59;;;-145.97;100.00
54465;BME280;40374;49.480;20.016;2023-02-15T21:55:39;62409.59;;;-145.97;100.00
54465;BME280;40374;49.480;20.016;2023-02-15T21:58:17;62409.59;;;-145.97;100.00
54465;BME280;40374;49.480;20.016;2023-02-15T22:00:46;62409.59;;;-145.97;100.00
54465;BME280;40374;49.480;20.016;2023-02-15T22:03:14;62409.59;;;-145.97;100.00
54465;BME280;40374;49.480;20.016;2023-02-15T22:05:42;62409.59;;;-145.97;100.00
54465;BME280;40374;49.480;20.016;2023-02-15T22:08:13;62409.59;;;-145.97;100.00
54465;BME280;40374;49.480;20.016;2023-02-15T22:10:41;62409.59;;;-145.97;100.00
54465;BME280;40374;49.480;20.016;2023-02-15T22:13:14;62409.59;;;-145.97;100.00
54465;BME280;40374;49.480;20.016;2023-02-15T22:15:42;62409.59;;;-145.97;100.00
54465;BME280;40374;49.480;20.016;2023-02-15T22:18:28;62409.59;;;-145.97;100.00
54465;BME280;40374;49.480;20.016;2023-02-15T22:21:00;62409.59;;;-145.97;100.00
54465;BME280;40374;49.480;20.016;2023-02-15T22:23:29;62409.59;;;-145.97;100.00
54465;BME280;40374;49.480;20.016;2023-02-15T22:26:02;62409.59;;;-145.97;100.00
54465;BME280;40374;49.480;20.016;2023-02-15T22:28:32;62409.59;;;-145.97;100.00
54465;BME280;40374;49.480;20.016;2023-02-15T22:31:00;62409.59;;;-145.97;100.00
54465;BME280;40374;49.480;20.016;2023-02-15T22:33:31;62409.59;;;-145.97;100.00
54465;BME280;40374;49.480;20.016;2023-02-15T22:35:59;62409.59;;;-145.97;100.00
54465;BME280;40374;49.480;20.016;2023-02-15T22:38:27;62409.59;;;-145.97;100.00
54465;BME280;40374;49.480;20.016;2023-02-15T22:40:57;62409.59;;;-145.97;100.00
54465;BME280;40374;49.480;20.016;2023-02-15T22:43:38;62409.59;;;-145.97;100.00
54465;BME280;40374;49.480;20.016;2023-02-15T22:46:17;62409.59;;;-145.97;100.00
54465;BME280;40374;49.480;20.016;2023-02-15T22:48:47;62409.59;;;-145.97;100.00
54465;BME280;40374;49.480;20.016;2023-02-15T22:51:17;62409.59;;;-145.97;100.00
54465;BME280;40374;49.480;20.016;2023-02-15T22:53:46;62409.59;;;-145.97;100.00
54465;BME280;40374;49.480;20.016;2023-02-15T22:58:59;62409.59;;;-145.97;100.00
54465;BME280;40374;49.480;20.016;2023-02-15T23:01:34;62409.59;;;-145.97;100.00
54465;BME280;40374;49.480;20.016;2023-02-15T23:04:02;62409.59;;;-145.97;100.00
54465;BME280;40374;49.480;20.016;2023-02-15T23:06:30;62409.59;;;-145.97;100.00
54465;BME280;40374;49.480;20.016;2023-02-15T23:08:58;62409.59;;;-145.97;100.00
54465;BME280;40374;49.480;20.016;2023-02-15T23:11:27;62409.59;;;-145.97;100.00
54465;BME280;40374;49.480;20.016;2023-02-15T23:13:55;62409.59;;;-145.97;100.00
54465;BME280;40374;49.480;20.016;2023-02-15T23:16:22;62409.59;;;-145.97;100.00
54465;BME280;40374;49.480;20.016;2023-02-15T23:18:50;62409.59;;;-145.97;100.00
54465;BME280;40374;49.480;20.016;2023-02-15T23:21:31;62409.59;;;-145.97;100.00
54465;BME280;40374;49.480;20.016;2023-02-15T23:24:23;62409.59;;;-145.97;100.00
54465;BME280;40374;49.480;20.016;2023-02-15T23:26:52;62409.59;;;-145.97;100.00
54465;BME280;40374;49.480;20.016;2023-02-15T23:29:22;62409.59;;;-145.97;100.00
54465;BME280;40374;49.480;20.016;2023-02-15T23:31:53;62409.59;;;-145.97;100.00
54465;BME280;40374;49.480;20.016;2023-02-15T23:34:24;62409.59;;;-145.97;100.00
54465;BME280;40374;49.480;20.016;2023-02-15T23:36:52;62409.59;;;-145.97;100.00
54465;BME280;40374;49.480;20.016;2023-02-15T23:39:23;62409.59;;;-145.97;100.00
54465;BME280;40374;49.480;20.016;2023-02-15T23:42:12;62409.59;;;-145.97;100.00
54465;BME280;40374;49.480;20.016;2023-02-15T23:44:43;62409.59;;;-145.97;100.00
54465;BME280;40374;49.480;20.016;2023-02-15T23:47:19;62409.59;;;-145.97;100.00
54465;BME280;40374;49.480;20.016;2023-02-15T23:49:47;62409.59;;;-145.97;100.00
54465;BME280;40374;49.480;20.016;2023-02-15T23:52:14;62409.59;;;-145.97;100.00
54465;BME280;40374;49.480;20.016;2023-02-15T23:54:42;62409.59;;;-145.97;100.00
54465;BME280;40374;49.480;20.016;2023-02-15T23:57:10;62409.59;;;-145.97;100.00
54465;BME280;40374;49.480;20.016;2023-02-15T23:59:39;62409.59;;;-145.97;100.00
